sensor_id;sensor_type;location;lat;lon;timestamp;P1;durP1;ratioP1;P2;durP2;ratioP2
17424;SDS011;8830;50.978;5.058;2023-03-19T00:01:37;2.67;;;2.20;;
17424;SDS011;8830;50.978;5.058;2023-03-19T00:04:03;2.07;;;1.80;;
17424;SDS011;8830;50.978;5.058;2023-03-19T00:06:31;2.87;;;1.80;;
17424;SDS011;8830;50.978;5.058;2023-03-19T00:08:59;3.17;;;2.10;;
17424;SDS011;8830;50.978;5.058;2023-03-19T00:11:26;2.20;;;2.00;;
17424;SDS011;8830;50.978;5.058;2023-03-19T00:13:53;2.97;;;1.90;;
17424;SDS011;8830;50.978;5.058;2023-03-19T00:16:20;2.33;;;1.60;;
17424;SDS011;8830;50.978;5.058;2023-03-19T00:18:47;2.13;;;1.90;;
17424;SDS011;8830;50.978;5.058;2023-03-19T00:21:14;2.37;;;2.17;;
17424;SDS011;8830;50.978;5.058;2023-03-19T00:23:41;2.10;;;2.00;;
17424;SDS011;8830;50.978;5.058;2023-03-19T00:26:09;2.13;;;1.73;;
17424;SDS011;8830;50.978;5.058;2023-03-19T00:28:37;2.40;;;2.17;;
17424;SDS011;8830;50.978;5.058;2023-03-19T00:31:07;2.10;;;2.00;;
17424;SDS011;8830;50.978;5.058;2023-03-19T00:33:36;2.07;;;1.97;;
17424;SDS011;8830;50.978;5.058;2023-03-19T00:36:03;2.33;;;2.07;;
17424;SDS011;8830;50.978;5.058;2023-03-19T00:38:32;2.53;;;2.17;;
17424;SDS011;8830;50.978;5.058;2023-03-19T00:40:59;2.37;;;2.27;;
17424;SDS011;8830;50.978;5.058;2023-03-19T00:43:28;2.23;;;2.10;;
17424;SDS011;8830;50.978;5.058;2023-03-19T00:45:56;2.43;;;2.23;;
17424;SDS011;8830;50.978;5.058;2023-03-19T00:48:23;2.50;;;2.17;;
17424;SDS011;8830;50.978;5.058;2023-03-19T00:50:50;2.37;;;2.17;;
17424;SDS011;8830;50.978;5.058;2023-03-19T00:53:17;2.70;;;1.83;;
17424;SDS011;8830;50.978;5.058;2023-03-19T00:55:44;2.53;;;1.83;;
17424;SDS011;8830;50.978;5.058;2023-03-19T00:58:11;2.17;;;2.07;;
17424;SDS011;8830;50.978;5.058;2023-03-19T01:00:40;2.80;;;2.30;;
17424;SDS011;8830;50.978;5.058;2023-03-19T01:03:07;2.60;;;2.40;;
17424;SDS011;8830;50.978;5.058;2023-03-19T01:05:34;2.53;;;1.90;;
17424;SDS011;8830;50.978;5.058;2023-03-19T01:08:02;2.27;;;2.17;;
17424;SDS011;8830;50.978;5.058;2023-03-19T01:10:31;1.80;;;1.70;;
17424;SDS011;8830;50.978;5.058;2023-03-19T01:12:59;2.87;;;2.47;;
17424;SDS011;8830;50.978;5.058;2023-03-19T01:15:26;2.30;;;2.10;;
17424;SDS011;8830;50.978;5.058;2023-03-19T01:17:54;3.47;;;2.90;;
17424;SDS011;8830;50.978;5.058;2023-03-19T01:20:21;4.13;;;1.90;;
17424;SDS011;8830;50.978;5.058;2023-03-19T01:22:48;2.60;;;2.40;;
17424;SDS011;8830;50.978;5.058;2023-03-19T01:25:16;3.63;;;2.20;;
17424;SDS011;8830;50.978;5.058;2023-03-19T01:27:43;2.80;;;2.60;;
17424;SDS011;8830;50.978;5.058;2023-03-19T01:30:10;4.27;;;2.43;;
17424;SDS011;8830;50.978;5.058;2023-03-19T01:32:38;2.63;;;2.50;;
17424;SDS011;8830;50.978;5.058;2023-03-19T01:35:07;2.07;;;1.97;;
17424;SDS011;8830;50.978;5.058;2023-03-19T01:37:35;3.27;;;2.10;;
17424;SDS011;8830;50.978;5.058;2023-03-19T01:40:02;2.53;;;2.33;;
17424;SDS011;8830;50.978;5.058;2023-03-19T01:42:30;2.50;;;2.30;;
17424;SDS011;8830;50.978;5.058;2023-03-19T01:44:57;2.73;;;2.43;;
17424;SDS011;8830;50.978;5.058;2023-03-19T01:47:27;2.83;;;2.40;;
17424;SDS011;8830;50.978;5.058;2023-03-19T01:49:57;3.30;;;2.50;;
17424;SDS011;8830;50.978;5.058;2023-03-19T01:52:27;2.77;;;2.57;;
17424;SDS011;8830;50.978;5.058;2023-03-19T01:54:57;3.60;;;2.70;;
17424;SDS011;8830;50.978;5.058;2023-03-19T01:57:26;3.00;;;2.70;;
17424;SDS011;8830;50.978;5.058;2023-03-19T01:59:55;3.20;;;2.93;;
17424;SDS011;8830;50.978;5.058;2023-03-19T02:02:26;3.23;;;3.00;;
17424;SDS011;8830;50.978;5.058;2023-03-19T02:04:55;2.73;;;2.53;;
17424;SDS011;8830;50.978;5.058;2023-03-19T02:07:27;4.20;;;3.30;;
17424;SDS011;8830;50.978;5.058;2023-03-19T02:09:55;3.30;;;3.00;;
17424;SDS011;8830;50.978;5.058;2023-03-19T02:12:24;3.83;;;3.43;;
17424;SDS011;8830;50.978;5.058;2023-03-19T02:14:51;3.37;;;3.03;;
17424;SDS011;8830;50.978;5.058;2023-03-19T02:17:19;4.27;;;3.40;;
17424;SDS011;8830;50.978;5.058;2023-03-19T02:19:48;3.50;;;3.10;;
17424;SDS011;8830;50.978;5.058;2023-03-19T02:22:21;3.27;;;2.97;;
17424;SDS011;8830;50.978;5.058;2023-03-19T02:24:55;3.97;;;3.60;;
17424;SDS011;8830;50.978;5.058;2023-03-19T02:27:28;3.23;;;2.93;;
17424;SDS011;8830;50.978;5.058;2023-03-19T02:29:55;4.20;;;3.43;;
17424;SDS011;8830;50.978;5.058;2023-03-19T02:32:22;3.07;;;2.80;;
17424;SDS011;8830;50.978;5.058;2023-03-19T02:34:50;3.63;;;3.37;;
17424;SDS011;8830;50.978;5.058;2023-03-19T02:37:18;3.47;;;3.20;;
17424;SDS011;8830;50.978;5.058;2023-03-19T02:39:51;3.70;;;3.40;;
17424;SDS011;8830;50.978;5.058;2023-03-19T02:42:22;4.13;;;3.60;;
17424;SDS011;8830;50.978;5.058;2023-03-19T02:44:53;4.60;;;3.67;;
17424;SDS011;8830;50.978;5.058;2023-03-19T02:47:20;3.50;;;3.20;;
17424;SDS011;8830;50.978;5.058;2023-03-19T02:49:48;4.10;;;3.70;;
17424;SDS011;8830;50.978;5.058;2023-03-19T02:52:16;3.87;;;3.57;;
17424;SDS011;8830;50.978;5.058;2023-03-19T02:54:43;4.57;;;4.17;;
17424;SDS011;8830;50.978;5.058;2023-03-19T02:57:11;4.50;;;4.20;;
17424;SDS011;8830;50.978;5.058;2023-03-19T02:59:38;5.33;;;4.83;;
17424;SDS011;8830;50.978;5.058;2023-03-19T03:02:07;4.77;;;4.37;;
17424;SDS011;8830;50.978;5.058;2023-03-19T03:04:34;5.37;;;4.93;;
17424;SDS011;8830;50.978;5.058;2023-03-19T03:07:02;4.50;;;4.20;;
17424;SDS011;8830;50.978;5.058;2023-03-19T03:09:30;5.40;;;4.90;;
17424;SDS011;8830;50.978;5.058;2023-03-19T03:11:57;4.90;;;4.40;;
17424;SDS011;8830;50.978;5.058;2023-03-19T03:14:24;5.57;;;5.07;;
17424;SDS011;8830;50.978;5.058;2023-03-19T03:16:51;5.60;;;5.00;;
17424;SDS011;8830;50.978;5.058;2023-03-19T03:19:19;5.43;;;5.03;;
17424;SDS011;8830;50.978;5.058;2023-03-19T03:21:47;5.77;;;5.33;;
17424;SDS011;8830;50.978;5.058;2023-03-19T03:24:14;5.67;;;5.20;;
17424;SDS011;8830;50.978;5.058;2023-03-19T03:26:41;5.83;;;5.33;;
17424;SDS011;8830;50.978;5.058;2023-03-19T03:29:08;5.83;;;5.23;;
17424;SDS011;8830;50.978;5.058;2023-03-19T03:31:35;6.10;;;5.50;;
17424;SDS011;8830;50.978;5.058;2023-03-19T03:34:02;6.00;;;5.40;;
17424;SDS011;8830;50.978;5.058;2023-03-19T03:36:31;5.93;;;5.40;;
17424;SDS011;8830;50.978;5.058;2023-03-19T03:38:58;6.70;;;6.20;;
17424;SDS011;8830;50.978;5.058;2023-03-19T03:41:25;5.77;;;5.27;;
17424;SDS011;8830;50.978;5.058;2023-03-19T03:43:52;6.37;;;5.77;;
17424;SDS011;8830;50.978;5.058;2023-03-19T03:46:19;6.43;;;5.93;;
17424;SDS011;8830;50.978;5.058;2023-03-19T03:48:46;6.33;;;5.83;;
17424;SDS011;8830;50.978;5.058;2023-03-19T03:51:15;5.73;;;5.20;;
17424;SDS011;8830;50.978;5.058;2023-03-19T03:53:44;8.37;;;5.70;;
17424;SDS011;8830;50.978;5.058;2023-03-19T03:56:11;6.37;;;5.83;;
17424;SDS011;8830;50.978;5.058;2023-03-19T03:58:38;6.50;;;6.00;;
17424;SDS011;8830;50.978;5.058;2023-03-19T04:01:05;6.43;;;6.03;;
17424;SDS011;8830;50.978;5.058;2023-03-19T04:03:32;6.97;;;6.47;;
17424;SDS011;8830;50.978;5.058;2023-03-19T04:05:59;8.60;;;6.83;;
17424;SDS011;8830;50.978;5.058;2023-03-19T04:08:27;6.80;;;6.30;;
17424;SDS011;8830;50.978;5.058;2023-03-19T04:10:55;7.50;;;6.90;;
17424;SDS011;8830;50.978;5.058;2023-03-19T04:13:22;7.67;;;7.07;;
17424;SDS011;8830;50.978;5.058;2023-03-19T04:15:49;8.67;;;6.80;;
17424;SDS011;8830;50.978;5.058;2023-03-19T04:18:18;7.27;;;6.77;;
17424;SDS011;8830;50.978;5.058;2023-03-19T04:20:45;9.37;;;7.43;;
17424;SDS011;8830;50.978;5.058;2023-03-19T04:23:12;7.27;;;6.47;;
17424;SDS011;8830;50.978;5.058;2023-03-19T04:25:39;7.40;;;6.80;;
17424;SDS011;8830;50.978;5.058;2023-03-19T04:28:08;7.07;;;6.57;;
17424;SDS011;8830;50.978;5.058;2023-03-19T04:30:35;7.10;;;6.60;;
17424;SDS011;8830;50.978;5.058;2023-03-19T04:33:02;7.47;;;6.87;;
17424;SDS011;8830;50.978;5.058;2023-03-19T04:35:31;8.13;;;7.43;;
17424;SDS011;8830;50.978;5.058;2023-03-19T04:37:58;7.20;;;6.70;;
17424;SDS011;8830;50.978;5.058;2023-03-19T04:40:25;7.87;;;7.27;;
17424;SDS011;8830;50.978;5.058;2023-03-19T04:42:52;8.37;;;7.77;;
17424;SDS011;8830;50.978;5.058;2023-03-19T04:45:20;7.60;;;7.03;;
17424;SDS011;8830;50.978;5.058;2023-03-19T04:47:47;7.43;;;6.83;;
17424;SDS011;8830;50.978;5.058;2023-03-19T04:50:14;8.07;;;7.37;;
17424;SDS011;8830;50.978;5.058;2023-03-19T04:52:42;7.97;;;7.37;;
17424;SDS011;8830;50.978;5.058;2023-03-19T04:55:09;8.53;;;7.80;;
17424;SDS011;8830;50.978;5.058;2023-03-19T04:57:36;8.70;;;7.70;;
17424;SDS011;8830;50.978;5.058;2023-03-19T05:00:03;7.50;;;6.93;;
17424;SDS011;8830;50.978;5.058;2023-03-19T05:02:33;7.97;;;7.27;;
17424;SDS011;8830;50.978;5.058;2023-03-19T05:04:59;9.27;;;8.37;;
17424;SDS011;8830;50.978;5.058;2023-03-19T05:07:26;8.37;;;7.77;;
17424;SDS011;8830;50.978;5.058;2023-03-19T05:09:53;8.87;;;8.17;;
17424;SDS011;8830;50.978;5.058;2023-03-19T05:12:20;9.67;;;8.97;;
17424;SDS011;8830;50.978;5.058;2023-03-19T05:14:47;9.60;;;8.70;;
17424;SDS011;8830;50.978;5.058;2023-03-19T05:17:14;9.17;;;8.47;;
17424;SDS011;8830;50.978;5.058;2023-03-19T05:19:42;9.47;;;8.47;;
17424;SDS011;8830;50.978;5.058;2023-03-19T05:22:09;8.77;;;8.10;;
17424;SDS011;8830;50.978;5.058;2023-03-19T05:24:37;13.13;;;11.83;;
17424;SDS011;8830;50.978;5.058;2023-03-19T05:27:03;9.13;;;8.43;;
17424;SDS011;8830;50.978;5.058;2023-03-19T05:29:31;9.33;;;8.53;;
17424;SDS011;8830;50.978;5.058;2023-03-19T05:31:58;9.37;;;8.57;;
17424;SDS011;8830;50.978;5.058;2023-03-19T05:34:27;9.60;;;8.80;;
17424;SDS011;8830;50.978;5.058;2023-03-19T05:36:56;10.57;;;9.50;;
17424;SDS011;8830;50.978;5.058;2023-03-19T05:39:23;10.90;;;9.87;;
17424;SDS011;8830;50.978;5.058;2023-03-19T05:41:50;11.87;;;10.77;;
17424;SDS011;8830;50.978;5.058;2023-03-19T05:44:17;11.03;;;10.03;;
17424;SDS011;8830;50.978;5.058;2023-03-19T05:46:44;10.33;;;9.53;;
17424;SDS011;8830;50.978;5.058;2023-03-19T05:49:11;9.70;;;9.00;;
17424;SDS011;8830;50.978;5.058;2023-03-19T05:51:38;10.77;;;10.07;;
17424;SDS011;8830;50.978;5.058;2023-03-19T05:54:07;11.37;;;10.37;;
17424;SDS011;8830;50.978;5.058;2023-03-19T05:56:34;11.37;;;10.43;;
17424;SDS011;8830;50.978;5.058;2023-03-19T05:59:01;10.47;;;9.57;;
17424;SDS011;8830;50.978;5.058;2023-03-19T06:01:29;10.77;;;9.87;;
17424;SDS011;8830;50.978;5.058;2023-03-19T06:03:55;11.33;;;10.33;;
17424;SDS011;8830;50.978;5.058;2023-03-19T06:06:22;10.33;;;9.53;;
17424;SDS011;8830;50.978;5.058;2023-03-19T06:08:49;10.83;;;10.03;;
17424;SDS011;8830;50.978;5.058;2023-03-19T06:11:18;11.67;;;10.50;;
17424;SDS011;8830;50.978;5.058;2023-03-19T06:13:45;11.87;;;10.70;;
17424;SDS011;8830;50.978;5.058;2023-03-19T06:16:12;11.17;;;10.27;;
17424;SDS011;8830;50.978;5.058;2023-03-19T06:18:39;12.00;;;10.97;;
17424;SDS011;8830;50.978;5.058;2023-03-19T06:21:06;11.67;;;10.63;;
17424;SDS011;8830;50.978;5.058;2023-03-19T06:23:33;12.27;;;11.37;;
17424;SDS011;8830;50.978;5.058;2023-03-19T06:26:01;11.83;;;10.90;;
17424;SDS011;8830;50.978;5.058;2023-03-19T06:28:31;12.20;;;11.00;;
17424;SDS011;8830;50.978;5.058;2023-03-19T06:30:58;12.53;;;11.43;;
17424;SDS011;8830;50.978;5.058;2023-03-19T06:33:25;12.53;;;11.63;;
17424;SDS011;8830;50.978;5.058;2023-03-19T06:35:56;12.60;;;11.40;;
17424;SDS011;8830;50.978;5.058;2023-03-19T06:38:23;11.30;;;10.20;;
17424;SDS011;8830;50.978;5.058;2023-03-19T06:40:50;11.33;;;10.33;;
17424;SDS011;8830;50.978;5.058;2023-03-19T06:43:17;9.77;;;9.07;;
17424;SDS011;8830;50.978;5.058;2023-03-19T06:45:46;10.77;;;9.77;;
17424;SDS011;8830;50.978;5.058;2023-03-19T06:48:13;9.80;;;9.00;;
17424;SDS011;8830;50.978;5.058;2023-03-19T06:50:41;9.80;;;9.03;;
17424;SDS011;8830;50.978;5.058;2023-03-19T06:53:09;9.20;;;8.23;;
17424;SDS011;8830;50.978;5.058;2023-03-19T06:55:36;9.00;;;8.40;;
17424;SDS011;8830;50.978;5.058;2023-03-19T06:58:05;7.73;;;7.13;;
17424;SDS011;8830;50.978;5.058;2023-03-19T07:00:35;7.10;;;6.50;;
17424;SDS011;8830;50.978;5.058;2023-03-19T07:03:03;7.60;;;6.30;;
17424;SDS011;8830;50.978;5.058;2023-03-19T07:05:32;4.90;;;4.60;;
17424;SDS011;8830;50.978;5.058;2023-03-19T07:07:59;5.37;;;4.93;;
17424;SDS011;8830;50.978;5.058;2023-03-19T07:10:27;5.00;;;4.40;;
17424;SDS011;8830;50.978;5.058;2023-03-19T07:12:53;4.27;;;3.87;;
17424;SDS011;8830;50.978;5.058;2023-03-19T07:15:20;4.30;;;3.63;;
17424;SDS011;8830;50.978;5.058;2023-03-19T07:17:47;4.40;;;4.00;;
17424;SDS011;8830;50.978;5.058;2023-03-19T07:20:16;5.87;;;3.90;;
17424;SDS011;8830;50.978;5.058;2023-03-19T07:22:43;4.20;;;3.30;;
17424;SDS011;8830;50.978;5.058;2023-03-19T07:25:11;4.93;;;4.07;;
17424;SDS011;8830;50.978;5.058;2023-03-19T07:27:38;4.93;;;4.23;;
17424;SDS011;8830;50.978;5.058;2023-03-19T07:30:05;4.27;;;3.63;;
17424;SDS011;8830;50.978;5.058;2023-03-19T07:32:33;3.80;;;3.50;;
17424;SDS011;8830;50.978;5.058;2023-03-19T07:35:01;4.50;;;3.85;;
17424;SDS011;8830;50.978;5.058;2023-03-19T07:37:29;4.03;;;3.20;;
17424;SDS011;8830;50.978;5.058;2023-03-19T07:39:56;3.72;;;3.45;;
17424;SDS011;8830;50.978;5.058;2023-03-19T07:42:23;4.53;;;4.13;;
17424;SDS011;8830;50.978;5.058;2023-03-19T07:44:50;4.72;;;4.43;;
17424;SDS011;8830;50.978;5.058;2023-03-19T07:47:17;5.13;;;4.72;;
17424;SDS011;8830;50.978;5.058;2023-03-19T07:49:45;5.25;;;4.85;;
17424;SDS011;8830;50.978;5.058;2023-03-19T07:52:12;5.97;;;5.47;;
17424;SDS011;8830;50.978;5.058;2023-03-19T07:54:40;8.20;;;7.40;;
17424;SDS011;8830;50.978;5.058;2023-03-19T07:57:07;10.68;;;7.95;;
17424;SDS011;8830;50.978;5.058;2023-03-19T07:59:34;13.43;;;12.05;;
17424;SDS011;8830;50.978;5.058;2023-03-19T08:02:01;8.85;;;7.97;;
17424;SDS011;8830;50.978;5.058;2023-03-19T08:04:29;8.90;;;8.20;;
17424;SDS011;8830;50.978;5.058;2023-03-19T08:06:56;8.43;;;7.63;;
17424;SDS011;8830;50.978;5.058;2023-03-19T08:09:23;8.55;;;7.75;;
17424;SDS011;8830;50.978;5.058;2023-03-19T08:11:51;8.95;;;8.15;;
17424;SDS011;8830;50.978;5.058;2023-03-19T08:14:18;8.60;;;7.90;;
17424;SDS011;8830;50.978;5.058;2023-03-19T08:16:46;10.30;;;9.43;;
17424;SDS011;8830;50.978;5.058;2023-03-19T08:19:13;9.73;;;8.82;;
17424;SDS011;8830;50.978;5.058;2023-03-19T08:21:41;10.55;;;9.45;;
17424;SDS011;8830;50.978;5.058;2023-03-19T08:24:08;10.27;;;9.38;;
17424;SDS011;8830;50.978;5.058;2023-03-19T08:26:35;9.30;;;8.40;;
17424;SDS011;8830;50.978;5.058;2023-03-19T08:29:04;11.32;;;8.98;;
17424;SDS011;8830;50.978;5.058;2023-03-19T08:31:31;12.10;;;10.20;;
17424;SDS011;8830;50.978;5.058;2023-03-19T08:33:58;11.32;;;10.27;;
17424;SDS011;8830;50.978;5.058;2023-03-19T08:36:27;12.15;;;10.73;;
17424;SDS011;8830;50.978;5.058;2023-03-19T08:38:54;14.07;;;10.80;;
17424;SDS011;8830;50.978;5.058;2023-03-19T08:41:20;12.88;;;11.30;;
17424;SDS011;8830;50.978;5.058;2023-03-19T08:43:48;10.55;;;9.35;;
17424;SDS011;8830;50.978;5.058;2023-03-19T08:46:16;11.63;;;9.52;;
17424;SDS011;8830;50.978;5.058;2023-03-19T08:48:43;9.27;;;8.38;;
17424;SDS011;8830;50.978;5.058;2023-03-19T08:51:11;9.77;;;8.77;;
17424;SDS011;8830;50.978;5.058;2023-03-19T08:53:38;9.90;;;8.75;;
17424;SDS011;8830;50.978;5.058;2023-03-19T08:56:05;9.57;;;8.10;;
17424;SDS011;8830;50.978;5.058;2023-03-19T08:58:33;9.18;;;7.30;;
17424;SDS011;8830;50.978;5.058;2023-03-19T09:01:01;9.50;;;8.50;;
17424;SDS011;8830;50.978;5.058;2023-03-19T09:03:30;8.43;;;7.15;;
17424;SDS011;8830;50.978;5.058;2023-03-19T09:05:58;11.95;;;7.78;;
17424;SDS011;8830;50.978;5.058;2023-03-19T09:08:26;9.98;;;6.90;;
17424;SDS011;8830;50.978;5.058;2023-03-19T09:10:53;10.07;;;7.50;;
17424;SDS011;8830;50.978;5.058;2023-03-19T09:13:20;11.47;;;7.60;;
17424;SDS011;8830;50.978;5.058;2023-03-19T09:15:47;13.57;;;7.20;;
17424;SDS011;8830;50.978;5.058;2023-03-19T09:18:15;10.53;;;6.90;;
17424;SDS011;8830;50.978;5.058;2023-03-19T09:20:46;8.97;;;6.33;;
17424;SDS011;8830;50.978;5.058;2023-03-19T09:23:14;8.97;;;5.37;;
17424;SDS011;8830;50.978;5.058;2023-03-19T09:25:41;8.90;;;6.37;;
17424;SDS011;8830;50.978;5.058;2023-03-19T09:28:09;13.87;;;5.33;;
17424;SDS011;8830;50.978;5.058;2023-03-19T09:30:36;11.20;;;5.80;;
17424;SDS011;8830;50.978;5.058;2023-03-19T09:33:04;11.53;;;4.77;;
17424;SDS011;8830;50.978;5.058;2023-03-19T09:35:32;12.37;;;6.27;;
17424;SDS011;8830;50.978;5.058;2023-03-19T09:38:00;6.47;;;4.57;;
17424;SDS011;8830;50.978;5.058;2023-03-19T09:40:28;7.70;;;4.87;;
17424;SDS011;8830;50.978;5.058;2023-03-19T09:43:04;7.90;;;4.63;;
17424;SDS011;8830;50.978;5.058;2023-03-19T09:45:48;13.13;;;5.40;;
17424;SDS011;8830;50.978;5.058;2023-03-19T09:48:20;10.27;;;4.77;;
17424;SDS011;8830;50.978;5.058;2023-03-19T09:50:58;6.80;;;3.93;;
17424;SDS011;8830;50.978;5.058;2023-03-19T09:53:34;9.27;;;3.90;;
17424;SDS011;8830;50.978;5.058;2023-03-19T09:56:11;8.60;;;5.03;;
17424;SDS011;8830;50.978;5.058;2023-03-19T09:58:43;11.37;;;4.57;;
17424;SDS011;8830;50.978;5.058;2023-03-19T10:01:15;7.40;;;4.63;;
17424;SDS011;8830;50.978;5.058;2023-03-19T10:03:54;11.47;;;4.60;;
17424;SDS011;8830;50.978;5.058;2023-03-19T10:06:33;6.93;;;4.00;;
17424;SDS011;8830;50.978;5.058;2023-03-19T10:09:11;11.60;;;4.23;;
17424;SDS011;8830;50.978;5.058;2023-03-19T10:12:07;7.47;;;4.37;;
17424;SDS011;8830;50.978;5.058;2023-03-19T10:14:46;8.87;;;4.30;;
17424;SDS011;8830;50.978;5.058;2023-03-19T10:17:26;6.10;;;4.93;;
17424;SDS011;8830;50.978;5.058;2023-03-19T10:19:59;7.70;;;4.60;;
17424;SDS011;8830;50.978;5.058;2023-03-19T10:22:31;7.80;;;4.90;;
17424;SDS011;8830;50.978;5.058;2023-03-19T10:25:02;8.43;;;4.93;;
17424;SDS011;8830;50.978;5.058;2023-03-19T10:27:31;7.40;;;4.30;;
17424;SDS011;8830;50.978;5.058;2023-03-19T10:29:58;8.83;;;4.60;;
17424;SDS011;8830;50.978;5.058;2023-03-19T10:32:27;7.77;;;3.80;;
17424;SDS011;8830;50.978;5.058;2023-03-19T10:35:04;12.13;;;4.23;;
17424;SDS011;8830;50.978;5.058;2023-03-19T10:37:35;10.30;;;4.53;;
17424;SDS011;8830;50.978;5.058;2023-03-19T10:40:05;11.10;;;4.60;;
17424;SDS011;8830;50.978;5.058;2023-03-19T10:42:45;13.50;;;5.20;;
17424;SDS011;8830;50.978;5.058;2023-03-19T10:45:27;10.27;;;4.77;;
17424;SDS011;8830;50.978;5.058;2023-03-19T10:47:56;7.30;;;3.70;;
17424;SDS011;8830;50.978;5.058;2023-03-19T10:50:27;10.27;;;4.47;;
17424;SDS011;8830;50.978;5.058;2023-03-19T10:53:02;8.10;;;4.20;;
17424;SDS011;8830;50.978;5.058;2023-03-19T10:55:33;5.53;;;3.93;;
17424;SDS011;8830;50.978;5.058;2023-03-19T10:58:02;6.97;;;4.47;;
17424;SDS011;8830;50.978;5.058;2023-03-19T11:02:59;11.03;;;4.40;;
17424;SDS011;8830;50.978;5.058;2023-03-19T11:05:31;10.37;;;3.20;;
17424;SDS011;8830;50.978;5.058;2023-03-19T11:08:00;5.70;;;3.07;;
17424;SDS011;8830;50.978;5.058;2023-03-19T11:10:29;7.33;;;3.10;;
17424;SDS011;8830;50.978;5.058;2023-03-19T11:12:59;7.37;;;3.20;;
17424;SDS011;8830;50.978;5.058;2023-03-19T11:15:32;5.97;;;2.30;;
17424;SDS011;8830;50.978;5.058;2023-03-19T11:18:05;7.50;;;2.87;;
17424;SDS011;8830;50.978;5.058;2023-03-19T11:20:34;6.33;;;2.23;;
17424;SDS011;8830;50.978;5.058;2023-03-19T11:23:05;6.03;;;2.87;;
17424;SDS011;8830;50.978;5.058;2023-03-19T11:25:38;5.73;;;2.10;;
17424;SDS011;8830;50.978;5.058;2023-03-19T11:28:07;5.07;;;2.27;;
17424;SDS011;8830;50.978;5.058;2023-03-19T11:30:40;5.40;;;2.50;;
17424;SDS011;8830;50.978;5.058;2023-03-19T11:33:24;8.23;;;2.80;;
17424;SDS011;8830;50.978;5.058;2023-03-19T11:36:08;5.43;;;2.13;;
17424;SDS011;8830;50.978;5.058;2023-03-19T11:38:40;8.13;;;2.70;;
17424;SDS011;8830;50.978;5.058;2023-03-19T11:41:18;4.83;;;2.23;;
17424;SDS011;8830;50.978;5.058;2023-03-19T11:43:55;4.83;;;2.23;;
17424;SDS011;8830;50.978;5.058;2023-03-19T11:46:33;4.23;;;1.67;;
17424;SDS011;8830;50.978;5.058;2023-03-19T11:52:10;3.87;;;1.83;;
17424;SDS011;8830;50.978;5.058;2023-03-19T11:54:43;4.00;;;2.20;;
17424;SDS011;8830;50.978;5.058;2023-03-19T11:57:30;6.67;;;1.83;;
17424;SDS011;8830;50.978;5.058;2023-03-19T12:00:11;7.93;;;2.10;;
17424;SDS011;8830;50.978;5.058;2023-03-19T12:02:49;8.07;;;2.80;;
17424;SDS011;8830;50.978;5.058;2023-03-19T12:05:28;6.20;;;2.60;;
17424;SDS011;8830;50.978;5.058;2023-03-19T12:08:02;7.33;;;2.23;;
17424;SDS011;8830;50.978;5.058;2023-03-19T12:10:41;4.43;;;1.87;;
17424;SDS011;8830;50.978;5.058;2023-03-19T12:13:24;8.53;;;2.47;;
17424;SDS011;8830;50.978;5.058;2023-03-19T12:16:01;7.40;;;1.73;;
17424;SDS011;8830;50.978;5.058;2023-03-19T12:18:45;7.50;;;2.33;;
17424;SDS011;8830;50.978;5.058;2023-03-19T12:21:38;4.90;;;1.63;;
17424;SDS011;8830;50.978;5.058;2023-03-19T12:24:16;4.80;;;2.20;;
17424;SDS011;8830;50.978;5.058;2023-03-19T12:26:55;6.57;;;2.10;;
17424;SDS011;8830;50.978;5.058;2023-03-19T12:29:29;5.53;;;1.90;;
17424;SDS011;8830;50.978;5.058;2023-03-19T12:32:12;6.03;;;1.83;;
17424;SDS011;8830;50.978;5.058;2023-03-19T12:34:47;4.80;;;1.83;;
17424;SDS011;8830;50.978;5.058;2023-03-19T12:37:18;6.90;;;2.40;;
17424;SDS011;8830;50.978;5.058;2023-03-19T12:39:55;5.90;;;1.50;;
17424;SDS011;8830;50.978;5.058;2023-03-19T12:42:35;6.10;;;1.53;;
17424;SDS011;8830;50.978;5.058;2023-03-19T12:45:11;3.57;;;1.50;;
17424;SDS011;8830;50.978;5.058;2023-03-19T12:47:49;5.43;;;1.90;;
17424;SDS011;8830;50.978;5.058;2023-03-19T12:50:22;5.93;;;2.00;;
17424;SDS011;8830;50.978;5.058;2023-03-19T12:52:52;9.03;;;2.17;;
17424;SDS011;8830;50.978;5.058;2023-03-19T12:55:24;3.37;;;1.47;;
17424;SDS011;8830;50.978;5.058;2023-03-19T12:58:01;4.10;;;2.20;;
17424;SDS011;8830;50.978;5.058;2023-03-19T13:00:34;3.43;;;1.90;;
17424;SDS011;8830;50.978;5.058;2023-03-19T13:03:10;7.17;;;2.00;;
17424;SDS011;8830;50.978;5.058;2023-03-19T13:05:43;4.40;;;2.20;;
17424;SDS011;8830;50.978;5.058;2023-03-19T13:08:18;5.53;;;2.60;;
17424;SDS011;8830;50.978;5.058;2023-03-19T13:10:48;6.07;;;3.07;;
17424;SDS011;8830;50.978;5.058;2023-03-19T13:13:24;8.50;;;2.27;;
17424;SDS011;8830;50.978;5.058;2023-03-19T13:15:58;3.40;;;1.97;;
17424;SDS011;8830;50.978;5.058;2023-03-19T13:18:37;4.07;;;1.67;;
17424;SDS011;8830;50.978;5.058;2023-03-19T13:21:18;6.80;;;1.63;;
17424;SDS011;8830;50.978;5.058;2023-03-19T13:23:49;3.43;;;1.60;;
17424;SDS011;8830;50.978;5.058;2023-03-19T13:26:23;8.20;;;1.70;;
17424;SDS011;8830;50.978;5.058;2023-03-19T13:28:58;3.77;;;1.33;;
17424;SDS011;8830;50.978;5.058;2023-03-19T13:31:26;4.13;;;1.90;;
17424;SDS011;8830;50.978;5.058;2023-03-19T13:34:03;5.80;;;2.60;;
17424;SDS011;8830;50.978;5.058;2023-03-19T13:36:34;7.30;;;2.83;;
17424;SDS011;8830;50.978;5.058;2023-03-19T13:39:03;9.77;;;2.60;;
17424;SDS011;8830;50.978;5.058;2023-03-19T13:41:53;7.43;;;2.77;;
17424;SDS011;8830;50.978;5.058;2023-03-19T13:44:33;5.13;;;3.47;;
17424;SDS011;8830;50.978;5.058;2023-03-19T13:50:17;6.67;;;3.87;;
17424;SDS011;8830;50.978;5.058;2023-03-19T13:53:11;4.63;;;4.23;;
17424;SDS011;8830;50.978;5.058;2023-03-19T13:55:53;7.47;;;4.13;;
17424;SDS011;8830;50.978;5.058;2023-03-19T13:58:23;7.47;;;4.30;;
17424;SDS011;8830;50.978;5.058;2023-03-19T14:01:10;8.43;;;3.87;;
17424;SDS011;8830;50.978;5.058;2023-03-19T14:03:58;6.80;;;4.07;;
17424;SDS011;8830;50.978;5.058;2023-03-19T14:06:29;6.97;;;3.73;;
17424;SDS011;8830;50.978;5.058;2023-03-19T14:09:00;8.37;;;4.47;;
17424;SDS011;8830;50.978;5.058;2023-03-19T14:11:28;6.97;;;4.07;;
17424;SDS011;8830;50.978;5.058;2023-03-19T14:13:59;6.63;;;3.70;;
17424;SDS011;8830;50.978;5.058;2023-03-19T14:16:29;10.43;;;4.27;;
17424;SDS011;8830;50.978;5.058;2023-03-19T14:18:59;11.80;;;4.80;;
17424;SDS011;8830;50.978;5.058;2023-03-19T14:21:33;9.57;;;4.77;;
17424;SDS011;8830;50.978;5.058;2023-03-19T14:24:20;10.97;;;5.00;;
17424;SDS011;8830;50.978;5.058;2023-03-19T14:26:55;6.37;;;4.10;;
17424;SDS011;8830;50.978;5.058;2023-03-19T14:29:26;6.07;;;4.63;;
17424;SDS011;8830;50.978;5.058;2023-03-19T14:31:55;5.97;;;5.20;;
17424;SDS011;8830;50.978;5.058;2023-03-19T14:34:28;5.93;;;4.90;;
17424;SDS011;8830;50.978;5.058;2023-03-19T14:37:02;7.53;;;4.97;;
17424;SDS011;8830;50.978;5.058;2023-03-19T14:39:40;7.33;;;5.40;;
17424;SDS011;8830;50.978;5.058;2023-03-19T14:42:13;7.20;;;4.60;;
17424;SDS011;8830;50.978;5.058;2023-03-19T14:48:07;8.20;;;4.30;;
17424;SDS011;8830;50.978;5.058;2023-03-19T14:53:49;11.87;;;4.33;;
17424;SDS011;8830;50.978;5.058;2023-03-19T14:56:19;13.13;;;5.53;;
17424;SDS011;8830;50.978;5.058;2023-03-19T14:58:49;5.83;;;4.30;;
17424;SDS011;8830;50.978;5.058;2023-03-19T15:01:18;7.97;;;5.20;;
17424;SDS011;8830;50.978;5.058;2023-03-19T15:03:50;7.80;;;5.93;;
17424;SDS011;8830;50.978;5.058;2023-03-19T15:06:19;8.77;;;6.17;;
17424;SDS011;8830;50.978;5.058;2023-03-19T15:08:46;12.63;;;6.37;;
17424;SDS011;8830;50.978;5.058;2023-03-19T15:11:23;12.50;;;7.10;;
17424;SDS011;8830;50.978;5.058;2023-03-19T15:14:10;7.57;;;6.40;;
17424;SDS011;8830;50.978;5.058;2023-03-19T15:16:59;6.77;;;5.10;;
17424;SDS011;8830;50.978;5.058;2023-03-19T15:19:33;6.00;;;4.83;;
17424;SDS011;8830;50.978;5.058;2023-03-19T15:22:04;10.40;;;5.27;;
17424;SDS011;8830;50.978;5.058;2023-03-19T15:24:38;11.37;;;6.20;;
17424;SDS011;8830;50.978;5.058;2023-03-19T15:27:19;7.73;;;4.17;;
17424;SDS011;8830;50.978;5.058;2023-03-19T15:29:47;8.90;;;4.33;;
17424;SDS011;8830;50.978;5.058;2023-03-19T15:32:29;7.33;;;5.70;;